createdAt,value
2023-02-11T00:01:54.800Z,85.93
2023-02-11T00:04:21.795Z,79.50
2023-02-11T00:06:48.607Z,88.25
2023-02-11T00:09:15.484Z,83.43
2023-02-11T00:11:42.357Z,80.65
2023-02-11T00:14:11.898Z,84.97
2023-02-11T00:16:39.224Z,68.35
2023-02-11T00:19:06.759Z,65.82
2023-02-11T00:21:34.609Z,59.83
2023-02-11T00:24:02.404Z,65.97
2023-02-11T00:26:32.683Z,61.65
2023-02-11T00:29:01.538Z,64.53
2023-02-11T00:31:30.087Z,59.22
2023-02-11T00:33:57.097Z,61.58
2023-02-11T00:36:26.438Z,60.78
2023-02-11T00:38:54.770Z,57.30
2023-02-11T00:41:22.691Z,58.95
2023-02-11T00:43:50.240Z,56.55
2023-02-11T00:46:19.038Z,59.85
2023-02-11T00:48:46.142Z,49.88
2023-02-11T00:51:14.089Z,60.10
2023-02-11T00:53:41.302Z,53.55
2023-02-11T00:56:08.618Z,51.60
2023-02-11T00:58:37.015Z,47.10
2023-02-11T01:01:04.563Z,49.90
2023-02-11T01:03:31.860Z,68.00
2023-02-11T01:05:58.699Z,64.55
2023-02-11T01:08:25.706Z,62.45
2023-02-11T01:11:01.305Z,58.00
2023-02-11T01:13:29.726Z,62.72
2023-02-11T01:15:58.107Z,75.07
2023-02-11T01:18:26.357Z,78.00
2023-02-11T01:20:54.559Z,78.45
2023-02-11T01:23:23.597Z,71.30
2023-02-11T01:25:51.676Z,76.93
2023-02-11T01:28:25.146Z,82.20
2023-02-11T01:30:53.614Z,72.78
2023-02-11T01:33:20.832Z,93.30
2023-02-11T01:35:47.985Z,92.53
2023-02-11T01:38:21.695Z,93.35
2023-02-11T01:40:51.833Z,92.97
2023-02-11T01:43:19.720Z,96.75
2023-02-11T01:45:47.214Z,94.45
2023-02-11T01:48:22.688Z,89.22
2023-02-11T01:50:54.892Z,70.22
2023-02-11T01:53:41.164Z,67.80
2023-02-11T01:56:27.389Z,69.57
2023-02-11T01:58:58.212Z,55.45
2023-02-11T02:01:27.693Z,50.90
2023-02-11T02:03:59.930Z,54.65
2023-02-11T02:06:37.362Z,68.93
2023-02-11T02:09:09.559Z,66.80
2023-02-11T02:11:36.848Z,60.83
2023-02-11T02:14:03.939Z,70.25
2023-02-11T02:16:35.086Z,60.85
2023-02-11T02:19:11.147Z,61.10
2023-02-11T02:22:02.570Z,53.35
2023-02-11T02:24:35.707Z,53.38
2023-02-11T02:27:40.166Z,56.55
2023-02-11T02:30:13.053Z,55.50
2023-02-11T02:32:52.568Z,66.82
2023-02-11T02:35:37.865Z,66.90
2023-02-11T02:38:33.795Z,51.28
2023-02-11T02:41:13.639Z,60.30
2023-02-11T02:43:44.184Z,72.00
2023-02-11T02:46:21.595Z,87.85
2023-02-11T02:48:49.854Z,77.68
2023-02-11T02:51:25.660Z,63.88
2023-02-11T02:54:08.819Z,64.50
2023-02-11T02:56:48.324Z,61.70
2023-02-11T02:59:37.982Z,53.22
2023-02-11T03:02:43.297Z,59.00
2023-02-11T03:05:23.601Z,64.10
2023-02-11T03:08:22.388Z,65.93
2023-02-11T03:10:53.658Z,64.13
2023-02-11T03:13:26.660Z,72.68
2023-02-11T03:15:57.360Z,63.47
2023-02-11T03:18:29.427Z,63.78
2023-02-11T03:20:57.787Z,70.32
2023-02-11T03:23:42.084Z,82.55
2023-02-11T03:26:27.460Z,70.05
2023-02-11T03:29:13.204Z,78.03
2023-02-11T03:31:50.515Z,76.60
2023-02-11T03:34:42.721Z,73.25
2023-02-11T03:37:18.001Z,78.75
2023-02-11T03:40:13.480Z,78.88
2023-02-11T03:42:48.926Z,73.82
2023-02-11T03:45:20.478Z,75.25
2023-02-11T03:47:52.032Z,78.05
2023-02-11T03:50:21.366Z,72.18
2023-02-11T03:52:49.937Z,78.15
2023-02-11T03:55:20.785Z,87.53
2023-02-11T03:57:48.859Z,81.28
2023-02-11T04:00:16.055Z,74.47
2023-02-11T04:02:43.326Z,80.13
2023-02-11T04:05:13.480Z,80.20
2023-02-11T04:07:40.813Z,72.40
2023-02-11T04:10:08.703Z,61.28
2023-02-11T04:12:36.211Z,56.03
2023-02-11T04:15:03.278Z,54.28
2023-02-11T04:17:30.258Z,55.65
2023-02-11T04:19:57.217Z,52.85
2023-02-11T04:22:24.491Z,62.22
2023-02-11T04:24:51.304Z,65.10
2023-02-11T04:27:18.743Z,72.28
2023-02-11T04:29:45.530Z,64.32
2023-02-11T04:32:12.894Z,65.50
2023-02-11T04:34:39.959Z,73.78
2023-02-11T04:37:08.465Z,62.08
2023-02-11T04:39:35.787Z,72.45
2023-02-11T04:42:02.967Z,85.85
2023-02-11T04:44:29.839Z,84.85
2023-02-11T04:46:57.324Z,79.18
2023-02-11T04:49:24.282Z,56.05
2023-02-11T04:51:51.244Z,56.33
2023-02-11T04:54:18.426Z,51.00
2023-02-11T04:56:45.415Z,65.78
2023-02-11T04:59:13.378Z,53.80
2023-02-11T05:01:40.885Z,57.60
2023-02-11T05:04:07.956Z,60.85
2023-02-11T05:06:35.049Z,54.30
2023-02-11T05:09:01.909Z,94.63
2023-02-11T05:11:30.016Z,86.28
2023-02-11T05:13:56.781Z,97.95
2023-02-11T05:16:24.053Z,81.65
2023-02-11T05:18:52.629Z,89.35
2023-02-11T05:21:19.757Z,69.38
2023-02-11T05:23:46.632Z,64.30
2023-02-11T05:26:14.378Z,58.38
2023-02-11T05:28:41.739Z,80.50
2023-02-11T05:31:11.337Z,102.78
2023-02-11T05:33:38.299Z,116.68
2023-02-11T05:36:08.521Z,112.00
2023-02-11T05:38:36.610Z,120.38
2023-02-11T05:41:04.758Z,132.63
2023-02-11T05:43:31.942Z,125.05
2023-02-11T05:45:59.177Z,118.40
2023-02-11T05:48:26.010Z,116.05
2023-02-11T05:50:53.085Z,125.90
2023-02-11T05:53:20.025Z,109.70
2023-02-11T05:55:47.139Z,114.75
2023-02-11T05:58:13.976Z,111.13
2023-02-11T06:00:40.860Z,102.90
2023-02-11T06:03:08.235Z,106.97
2023-02-11T06:05:36.194Z,102.10
2023-02-11T06:08:03.286Z,111.10
2023-02-11T06:10:30.498Z,115.82
2023-02-11T06:12:57.424Z,94.38
2023-02-11T06:15:24.372Z,119.45
2023-02-11T06:17:51.935Z,138.85
2023-02-11T06:20:19.540Z,144.75
2023-02-11T06:22:46.693Z,145.80
2023-02-11T06:25:14.090Z,144.38
2023-02-11T06:27:41.088Z,149.25
2023-02-11T06:30:09.048Z,182.68
2023-02-11T06:32:44.050Z,173.63
2023-02-11T06:35:13.746Z,151.63
2023-02-11T06:37:41.822Z,197.10
2023-02-11T06:40:09.688Z,190.25
2023-02-11T06:42:38.823Z,171.73
2023-02-11T06:45:13.518Z,187.80
2023-02-11T06:47:41.488Z,206.38
2023-02-11T06:50:12.287Z,240.45
2023-02-11T06:52:39.584Z,243.85
2023-02-11T06:55:06.567Z,204.63
2023-02-11T06:57:33.844Z,247.52
2023-02-11T07:00:00.799Z,252.90
2023-02-11T07:02:27.829Z,248.93
2023-02-11T07:04:54.771Z,221.13
2023-02-11T07:07:21.843Z,195.98
2023-02-11T07:09:48.685Z,182.77
2023-02-11T07:12:15.723Z,155.98
2023-02-11T07:14:42.948Z,130.38
2023-02-11T07:17:09.909Z,129.85
2023-02-11T07:19:36.701Z,106.20
2023-02-11T07:22:04.034Z,112.05
2023-02-11T07:24:31.062Z,64.00
2023-02-11T07:26:58.078Z,50.97
2023-02-11T07:29:24.897Z,43.85
2023-02-11T07:31:52.045Z,31.88
2023-02-11T07:34:18.888Z,47.28
2023-02-11T07:36:46.372Z,47.83
2023-02-11T07:39:13.799Z,82.25
2023-02-11T07:41:41.399Z,68.35
2023-02-11T07:44:08.256Z,79.88
2023-02-11T07:46:36.046Z,72.28
2023-02-11T07:49:03.763Z,75.68
2023-02-11T07:51:31.548Z,75.82
2023-02-11T07:54:00.284Z,61.47
2023-02-11T07:56:28.603Z,61.22
2023-02-11T07:58:56.956Z,71.90
2023-02-11T08:01:28.673Z,57.13
2023-02-11T08:03:58.001Z,57.88
2023-02-11T08:06:27.279Z,50.58
2023-02-11T08:08:54.627Z,36.75
2023-02-11T08:11:23.841Z,35.90
2023-02-11T08:13:51.960Z,32.80
2023-02-11T08:16:28.342Z,53.17
2023-02-11T08:19:01.351Z,34.45
2023-02-11T08:21:29.473Z,43.97
2023-02-11T08:23:57.045Z,45.45
2023-02-11T08:26:27.529Z,37.70
2023-02-11T08:28:56.683Z,18.02
2023-02-11T08:31:30.099Z,24.48
2023-02-11T08:34:00.184Z,31.05
2023-02-11T08:36:30.090Z,31.05
2023-02-11T08:39:16.160Z,40.70
2023-02-11T08:41:47.060Z,39.22
2023-02-11T08:44:13.835Z,33.35
2023-02-11T08:46:40.876Z,33.08
2023-02-11T08:49:07.735Z,30.20
2023-02-11T08:51:35.003Z,32.28
2023-02-11T08:54:02.416Z,21.48
2023-02-11T08:56:31.479Z,27.17
2023-02-11T08:58:59.311Z,27.48
2023-02-11T09:01:29.648Z,25.58
2023-02-11T09:03:58.670Z,31.70
2023-02-11T09:06:27.098Z,23.23
2023-02-11T09:08:56.064Z,24.45
2023-02-11T09:11:31.644Z,32.45
2023-02-11T09:13:59.316Z,26.90
2023-02-11T09:16:28.912Z,54.47
2023-02-11T09:19:00.661Z,45.10
2023-02-11T09:21:28.136Z,36.00
2023-02-11T09:23:56.113Z,117.03
2023-02-11T09:26:29.181Z,49.75
2023-02-11T09:28:56.872Z,40.65
2023-02-11T09:31:26.578Z,32.80
2023-02-11T09:33:56.470Z,30.17
2023-02-11T09:36:29.125Z,25.00
2023-02-11T09:38:58.733Z,25.15
2023-02-11T09:41:25.798Z,24.95
2023-02-11T09:43:58.991Z,28.08
2023-02-11T09:46:30.706Z,22.35
2023-02-11T09:48:59.293Z,21.63
2023-02-11T09:51:43.258Z,26.63
2023-02-11T09:54:21.673Z,21.77
2023-02-11T09:56:48.468Z,21.98
2023-02-11T09:59:18.688Z,25.02
2023-02-11T10:02:02.272Z,23.67
2023-02-11T10:04:48.034Z,83.55
2023-02-11T10:07:27.110Z,27.17
2023-02-11T10:10:12.068Z,32.58
2023-02-11T10:12:54.345Z,33.10
2023-02-11T10:15:45.200Z,38.88
2023-02-11T10:18:45.928Z,37.10
2023-02-11T10:21:29.638Z,24.27
2023-02-11T10:24:04.637Z,22.67
2023-02-11T10:26:32.951Z,23.85
2023-02-11T10:29:06.145Z,22.13
2023-02-11T10:31:42.055Z,27.25
2023-02-11T10:34:13.600Z,23.23
2023-02-11T10:36:42.786Z,24.60
2023-02-11T10:39:15.909Z,29.17
2023-02-11T10:42:06.842Z,25.55
2023-02-11T10:44:36.347Z,29.73
2023-02-11T10:47:12.397Z,23.13
2023-02-11T10:49:42.371Z,28.05
2023-02-11T10:52:30.714Z,24.67
2023-02-11T10:54:59.392Z,31.48
2023-02-11T10:57:46.168Z,38.42
2023-02-11T11:00:43.748Z,46.95
2023-02-11T11:03:28.109Z,53.03
2023-02-11T11:06:04.026Z,34.55
2023-02-11T11:09:04.717Z,32.45
2023-02-11T11:11:31.663Z,31.75
2023-02-11T11:14:00.609Z,27.52
2023-02-11T11:16:36.950Z,27.92
2023-02-11T11:19:06.806Z,31.92
2023-02-11T11:21:55.032Z,59.45
2023-02-11T11:24:34.706Z,27.33
2023-02-11T11:27:04.247Z,25.45
2023-02-11T11:29:38.637Z,28.60
2023-02-11T11:32:28.206Z,23.75
2023-02-11T11:34:59.183Z,32.67
2023-02-11T11:37:31.257Z,23.13
2023-02-11T11:40:01.177Z,22.48
2023-02-11T11:42:29.434Z,29.63
2023-02-11T11:45:23.271Z,27.40
2023-02-11T11:48:27.118Z,25.48
2023-02-11T11:50:58.615Z,25.75
2023-02-11T11:53:28.109Z,25.92
2023-02-11T11:56:03.770Z,28.25
2023-02-11T11:58:32.462Z,22.60
2023-02-11T12:01:41.126Z,36.60
2023-02-11T12:04:23.491Z,24.30
2023-02-11T12:07:10.891Z,28.73
2023-02-11T12:09:49.862Z,34.42
2023-02-11T12:12:32.653Z,24.92
2023-02-11T12:15:08.465Z,28.52
2023-02-11T12:17:43.560Z,25.48
2023-02-11T12:20:14.127Z,25.55
2023-02-11T12:23:09.869Z,22.80
2023-02-11T12:25:59.279Z,19.75
2023-02-11T12:28:29.138Z,24.88
2023-02-11T12:31:20.630Z,26.08
2023-02-11T12:33:59.855Z,22.52
2023-02-11T12:36:32.739Z,20.10
2023-02-11T12:39:04.021Z,24.52
2023-02-11T12:44:51.984Z,23.10
2023-02-11T12:47:42.478Z,25.92
2023-02-11T12:50:25.867Z,20.10
2023-02-11T12:53:14.885Z,20.48
2023-02-11T12:55:47.420Z,18.42
2023-02-11T12:58:23.873Z,24.23
2023-02-11T13:01:04.578Z,20.90
2023-02-11T13:03:39.351Z,25.40
2023-02-11T13:06:21.321Z,23.30
2023-02-11T13:09:21.134Z,18.67
2023-02-11T13:11:58.004Z,31.77
2023-02-11T13:14:33.467Z,29.67
2023-02-11T13:17:16.199Z,20.60
2023-02-11T13:19:53.455Z,25.77
2023-02-11T13:22:29.913Z,29.45
2023-02-11T13:25:04.364Z,31.25
2023-02-11T13:27:59.933Z,28.02
2023-02-11T13:30:30.529Z,20.25
2023-02-11T13:32:57.332Z,23.08
2023-02-11T13:35:30.128Z,25.02
2023-02-11T13:37:59.137Z,25.67
2023-02-11T13:40:33.995Z,23.13
2023-02-11T13:43:04.732Z,28.80
2023-02-11T13:45:43.912Z,25.45
2023-02-11T13:48:31.800Z,23.42
2023-02-11T13:51:02.352Z,20.52
2023-02-11T13:53:30.141Z,29.30
2023-02-11T13:56:13.036Z,24.50
2023-02-11T13:59:02.008Z,18.60
2023-02-11T14:02:07.790Z,27.48
2023-02-11T14:04:53.239Z,25.20
2023-02-11T14:07:50.468Z,25.23
2023-02-11T14:10:42.452Z,37.08
2023-02-11T14:13:25.611Z,32.90
2023-02-11T14:16:17.215Z,31.13
2023-02-11T14:18:49.877Z,33.17
2023-02-11T14:21:23.006Z,19.20
2023-02-11T14:23:56.189Z,25.33
2023-02-11T14:26:38.912Z,25.02
2023-02-11T14:29:33.139Z,30.98
2023-02-11T14:32:06.041Z,24.08
2023-02-11T14:34:43.389Z,21.55
2023-02-11T14:37:10.216Z,20.02
2023-02-11T14:39:52.786Z,20.17
2023-02-11T14:42:26.714Z,20.45
2023-02-11T14:44:56.831Z,23.35
2023-02-11T14:47:31.824Z,43.67
2023-02-11T14:49:58.786Z,50.92
2023-02-11T14:52:34.536Z,27.80
2023-02-11T14:55:24.545Z,26.42
2023-02-11T14:58:06.051Z,31.02
2023-02-11T15:00:33.383Z,45.67
2023-02-11T15:03:00.358Z,66.32
2023-02-11T15:05:29.081Z,82.68
2023-02-11T15:08:02.071Z,64.13
2023-02-11T15:10:37.776Z,67.60
2023-02-11T15:13:05.332Z,47.35
2023-02-11T15:15:33.263Z,39.42
2023-02-11T15:18:04.168Z,34.00
2023-02-11T15:20:33.684Z,31.02
2023-02-11T15:23:08.284Z,60.55
2023-02-11T15:25:43.174Z,46.15
2023-02-11T15:28:23.410Z,56.05
2023-02-11T15:31:13.723Z,40.28
2023-02-11T15:33:40.813Z,69.93
2023-02-11T15:36:15.591Z,90.38
2023-02-11T15:38:42.678Z,90.70
2023-02-11T15:41:36.916Z,86.07
2023-02-11T15:44:04.359Z,88.07
2023-02-11T15:46:38.972Z,92.68
2023-02-11T15:49:08.066Z,80.93
2023-02-11T15:51:39.970Z,74.20
2023-02-11T15:54:19.626Z,84.10
2023-02-11T15:56:50.875Z,49.83
2023-02-11T15:59:39.094Z,43.95
2023-02-11T16:02:17.241Z,39.78
2023-02-11T16:04:56.500Z,43.45
2023-02-11T16:07:49.894Z,53.05
2023-02-11T16:10:30.288Z,50.35
2023-02-11T16:13:03.163Z,65.70
2023-02-11T16:15:45.133Z,94.03
2023-02-11T16:18:38.397Z,82.03
2023-02-11T16:21:14.525Z,76.40
2023-02-11T16:27:23.448Z,127.95
2023-02-11T16:29:51.622Z,219.57
2023-02-11T16:32:24.128Z,130.68
2023-02-11T16:34:52.261Z,148.32
2023-02-11T16:37:19.144Z,194.10
2023-02-11T16:39:46.082Z,149.75
2023-02-11T16:42:13.337Z,169.48
2023-02-11T16:44:40.464Z,193.60
2023-02-11T16:47:13.529Z,183.95
2023-02-11T16:49:42.673Z,224.05
2023-02-11T16:52:14.925Z,262.83
2023-02-11T16:54:42.002Z,172.45
2023-02-11T16:57:18.185Z,159.25
2023-02-11T16:59:45.603Z,115.43
2023-02-11T17:02:27.718Z,140.20
2023-02-11T17:04:56.305Z,136.88
2023-02-11T17:07:23.221Z,198.20
2023-02-11T17:09:51.799Z,122.05
2023-02-11T17:12:19.271Z,185.60
2023-02-11T17:14:46.150Z,174.88
2023-02-11T17:17:13.451Z,136.18
2023-02-11T17:19:40.304Z,208.82
2023-02-11T17:22:07.153Z,218.88
2023-02-11T17:24:34.061Z,210.05
2023-02-11T17:27:00.946Z,199.65
2023-02-11T17:29:27.852Z,219.43
2023-02-11T17:31:55.103Z,213.27
2023-02-11T17:34:22.758Z,159.48
2023-02-11T17:36:50.254Z,180.05
2023-02-11T17:39:17.249Z,174.75
2023-02-11T17:41:44.148Z,182.10
2023-02-11T17:44:12.560Z,192.95
2023-02-11T17:46:39.687Z,170.30
2023-02-11T17:49:06.503Z,159.10
2023-02-11T17:51:36.249Z,155.05
2023-02-11T17:54:10.718Z,159.95
2023-02-11T17:56:38.513Z,155.07
2023-02-11T17:59:06.888Z,165.23
2023-02-11T18:01:35.195Z,149.52
2023-02-11T18:04:02.462Z,206.95
2023-02-11T18:06:29.372Z,229.02
2023-02-11T18:09:02.032Z,243.77
2023-02-11T18:11:35.015Z,250.18
2023-02-11T18:14:04.893Z,215.32
2023-02-11T18:16:34.464Z,199.38
2023-02-11T18:19:01.436Z,212.30
2023-02-11T18:21:28.406Z,204.98
2023-02-11T18:23:57.019Z,234.88
2023-02-11T18:26:26.349Z,241.88
2023-02-11T18:28:53.377Z,246.90
2023-02-11T18:31:22.080Z,228.45
2023-02-11T18:33:49.166Z,242.85
2023-02-11T18:36:16.761Z,241.52
2023-02-11T18:38:46.409Z,245.52
2023-02-11T18:41:14.326Z,253.05
2023-02-11T18:43:43.125Z,271.83
2023-02-11T18:46:12.740Z,266.25
2023-02-11T18:48:40.251Z,267.85
2023-02-11T18:51:16.786Z,262.10
2023-02-11T18:53:43.639Z,241.20
2023-02-11T18:56:16.525Z,260.95
2023-02-11T18:58:43.761Z,253.98
2023-02-11T19:01:15.114Z,239.55
2023-02-11T19:03:43.248Z,232.60
2023-02-11T19:06:20.222Z,227.23
2023-02-11T19:08:47.692Z,231.00
2023-02-11T19:11:16.308Z,226.20
2023-02-11T19:13:43.272Z,226.70
2023-02-11T19:16:11.591Z,192.50
2023-02-11T19:18:39.131Z,161.57
2023-02-11T19:21:10.842Z,104.95
2023-02-11T19:23:37.873Z,124.30
2023-02-11T19:26:06.589Z,122.80
2023-02-11T19:28:35.459Z,119.32
2023-02-11T19:31:07.664Z,102.50
2023-02-11T19:33:35.046Z,118.63
2023-02-11T19:36:07.141Z,105.85
2023-02-11T19:38:35.204Z,96.03
2023-02-11T19:41:02.495Z,88.45
2023-02-11T19:43:29.489Z,92.45
2023-02-11T19:45:57.657Z,82.15
2023-02-11T19:48:25.646Z,97.07
2023-02-11T19:50:52.676Z,102.88
2023-02-11T19:53:19.621Z,82.80
2023-02-11T19:55:46.739Z,88.93
2023-02-11T19:58:15.720Z,93.70
2023-02-11T20:00:43.425Z,90.40
2023-02-11T20:03:10.768Z,88.72
2023-02-11T20:05:42.444Z,81.22
2023-02-11T20:08:21.689Z,73.45
2023-02-11T20:11:16.001Z,69.20
2023-02-11T20:13:43.513Z,80.40
2023-02-11T20:16:16.885Z,80.18
2023-02-11T20:18:45.143Z,84.43
2023-02-11T20:21:16.332Z,85.90
2023-02-11T20:23:46.133Z,82.07
2023-02-11T20:26:15.760Z,97.13
2023-02-11T20:28:43.030Z,114.55
2023-02-11T20:31:11.874Z,110.38
2023-02-11T20:33:39.918Z,97.10
2023-02-11T20:36:09.481Z,50.67
2023-02-11T20:38:36.418Z,37.38
2023-02-11T20:41:07.243Z,32.17
2023-02-11T20:43:36.938Z,36.40
2023-02-11T20:46:06.503Z,50.53
2023-02-11T20:48:35.013Z,66.93
2023-02-11T20:51:04.256Z,63.33
2023-02-11T20:53:31.125Z,57.22
2023-02-11T20:56:05.272Z,64.07
2023-02-11T20:58:32.782Z,65.72
2023-02-11T21:01:14.353Z,64.10
2023-02-11T21:03:43.845Z,52.10
2023-02-11T21:06:11.579Z,41.58
2023-02-11T21:08:38.720Z,43.25
2023-02-11T21:11:09.467Z,42.17
2023-02-11T21:13:38.032Z,32.47
2023-02-11T21:16:05.351Z,39.97
2023-02-11T21:18:32.472Z,56.30
2023-02-11T21:21:01.085Z,53.30
2023-02-11T21:23:29.139Z,53.13
2023-02-11T21:25:57.199Z,51.72
2023-02-11T21:28:27.877Z,58.45
2023-02-11T21:30:56.334Z,53.75
2023-02-11T21:33:24.907Z,46.22
2023-02-11T21:35:59.374Z,53.65
2023-02-11T21:38:27.308Z,44.92
2023-02-11T21:40:54.385Z,47.22
2023-02-11T21:43:22.055Z,50.85
2023-02-11T21:45:51.157Z,43.85
2023-02-11T21:48:18.744Z,36.25
2023-02-11T21:50:47.305Z,39.92
2023-02-11T21:53:15.407Z,29.45
2023-02-11T21:55:42.382Z,32.95
2023-02-11T21:58:18.327Z,28.75
2023-02-11T22:00:45.185Z,22.92
2023-02-11T22:03:12.605Z,26.63
2023-02-11T22:05:42.458Z,29.02
2023-02-11T22:08:09.309Z,29.90
2023-02-11T22:10:36.151Z,24.20
2023-02-11T22:13:03.034Z,24.90
2023-02-11T22:15:29.952Z,33.13
2023-02-11T22:17:56.842Z,41.15
2023-02-11T22:20:23.679Z,46.03
2023-02-11T22:22:53.270Z,54.22
2023-02-11T22:25:20.215Z,45.67
2023-02-11T22:27:47.149Z,43.65
2023-02-11T22:30:14.271Z,41.92
2023-02-11T22:32:42.639Z,54.20
2023-02-11T22:35:13.628Z,42.30
2023-02-11T22:37:40.598Z,47.42
2023-02-11T22:40:08.014Z,44.85
2023-02-11T22:42:34.829Z,36.47
2023-02-11T22:45:03.365Z,41.05
2023-02-11T22:47:30.534Z,40.20
2023-02-11T22:49:57.644Z,34.53
2023-02-11T22:52:24.814Z,37.47
2023-02-11T22:54:52.375Z,32.60
2023-02-11T22:57:19.216Z,36.92
2023-02-11T22:59:46.137Z,33.35
2023-02-11T23:02:14.003Z,41.28
2023-02-11T23:04:41.177Z,44.42
2023-02-11T23:07:33.391Z,56.42
2023-02-11T23:10:00.507Z,42.42
2023-02-11T23:12:27.541Z,46.60
2023-02-11T23:14:57.263Z,43.33
2023-02-11T23:17:26.079Z,38.08
2023-02-11T23:19:56.797Z,45.28
2023-02-11T23:22:29.148Z,38.08
2023-02-11T23:25:07.836Z,42.85
2023-02-11T23:27:34.987Z,39.03
2023-02-11T23:30:09.006Z,37.10
2023-02-11T23:32:39.413Z,32.10
2023-02-11T23:35:09.875Z,34.50
2023-02-11T23:37:36.888Z,33.83
2023-02-11T23:40:12.831Z,33.40
2023-02-11T23:42:39.766Z,33.42
2023-02-11T23:45:08.015Z,30.10
2023-02-11T23:47:35.193Z,31.88
2023-02-11T23:50:02.089Z,34.38
2023-02-11T23:52:28.975Z,32.75
2023-02-11T23:54:55.796Z,32.92
2023-02-11T23:57:22.968Z,30.17
2023-02-11T23:59:50.545Z,24.73
